Terminal Aerodrome Forecast
Issued by NWS

Home | Current Version | Previous Version | Text Only | Print | Product List | Glossary On
Versions: 1 2 3 4 5 6 7 8 9 10 11 12 13 14 15
145
FTUS41 KPBZ 222320
TAFAGC
TAF
KAGC 222320Z 2300/2324 13004KT P6SM SCT100
     FM231500 13008KT P6SM BKN090
     FM231800 15011KT P6SM VCSH OVC050
     FM232000 15012G20KT P6SM -SHRA OVC025
     FM232300 16012KT 4SM RA OVC015=

USA.gov is the U.S. government's official web portal to all federal, state and local government web resources and services.